createdAt,value
2018-12-31T00:01:50.898Z,102450.61
2018-12-31T00:05:08.144Z,102456.94
2018-12-31T00:08:15.391Z,102453.57
2018-12-31T00:11:21.044Z,102455.70
2018-12-31T00:14:26.688Z,102464.19
2018-12-31T00:17:43.319Z,102480.31
2018-12-31T00:20:50.569Z,102487.13
2018-12-31T00:23:57.818Z,102494.78
2018-12-31T00:27:03.434Z,102491.41
2018-12-31T00:30:20.165Z,102498.16
2018-12-31T00:33:27.297Z,102495.64
2018-12-31T00:36:34.600Z,102483.77
2018-12-31T00:39:51.280Z,102468.44
2018-12-31T00:42:59.189Z,102472.28
2018-12-31T00:46:06.562Z,102467.62
2018-12-31T00:49:13.802Z,102471.00
2018-12-31T00:52:21.028Z,102481.66
2018-12-31T00:55:28.183Z,102488.02
2018-12-31T00:58:35.433Z,102487.99
2018-12-31T01:01:42.599Z,102494.41
2018-12-31T01:04:48.686Z,102506.68
2018-12-31T01:07:55.994Z,102512.67
2018-12-31T01:11:03.243Z,102504.58
2018-12-31T01:14:08.950Z,102498.61
2018-12-31T01:17:16.111Z,102502.44
2018-12-31T01:20:23.330Z,102508.86
2018-12-31T01:23:30.476Z,102504.59
2018-12-31T01:26:37.785Z,102504.16
2018-12-31T01:29:54.470Z,102507.17
2018-12-31T01:33:01.604Z,102504.19
2018-12-31T01:36:08.847Z,102507.98
2018-12-31T01:39:16.881Z,102511.78
2018-12-31T01:42:24.124Z,102506.67
2018-12-31T01:45:31.434Z,102495.66
2018-12-31T01:48:38.786Z,102490.97
2018-12-31T01:51:46.033Z,102488.84
2018-12-31T01:54:53.348Z,102485.88
2018-12-31T01:58:00.487Z,102485.88
2018-12-31T02:01:07.804Z,102490.13
2018-12-31T02:04:15.035Z,102510.53
2018-12-31T02:07:22.283Z,102506.30
2018-12-31T02:10:29.439Z,102512.67
2018-12-31T02:13:36.672Z,102508.84
2018-12-31T02:16:43.916Z,102500.77
2018-12-31T02:19:51.162Z,102499.88
2018-12-31T02:22:58.423Z,102499.03
2018-12-31T02:26:05.151Z,102485.91
2018-12-31T02:29:12.407Z,102490.56
2018-12-31T02:32:19.645Z,102511.81
2018-12-31T02:35:26.955Z,102507.13
2018-12-31T02:38:34.218Z,102492.28
2018-12-31T02:41:41.515Z,102491.85
2018-12-31T02:44:48.830Z,102502.45
2018-12-31T02:47:56.074Z,102496.10
2018-12-31T02:51:03.316Z,102491.01
2018-12-31T02:54:10.568Z,102485.47
2018-12-31T02:57:27.328Z,102481.22
2018-12-31T03:00:44.067Z,102476.53
2018-12-31T03:03:51.262Z,102499.46
2018-12-31T03:06:58.609Z,102500.78
2018-12-31T03:10:15.293Z,102492.71
2018-12-31T03:13:32.318Z,102483.78
2018-12-31T03:16:48.800Z,102506.27
2018-12-31T03:19:56.056Z,102509.26
2018-12-31T03:23:03.188Z,102515.23
2018-12-31T03:26:19.981Z,102518.20
2018-12-31T03:29:27.286Z,102524.11
2018-12-31T03:32:50.046Z,102516.92
2018-12-31T03:35:57.186Z,102516.08
2018-12-31T03:39:13.951Z,102516.92
2018-12-31T03:42:21.268Z,102515.23
2018-12-31T03:45:37.934Z,102514.80
2018-12-31T03:48:45.182Z,102518.59
2018-12-31T03:52:01.997Z,102508.40
2018-12-31T03:55:18.697Z,102504.61
2018-12-31T03:58:25.939Z,102503.31
2018-12-31T04:01:33.607Z,102512.66
2018-12-31T04:04:40.858Z,102507.95
2018-12-31T04:07:52.994Z,102506.67
2018-12-31T04:10:57.105Z,102499.52
2018-12-31T04:14:04.709Z,102499.04
2018-12-31T04:17:11.960Z,102497.78
2018-12-31T04:20:19.277Z,102492.68
2018-12-31T04:23:26.588Z,102500.36
2018-12-31T04:26:33.908Z,102502.00
2018-12-31T04:29:41.059Z,102497.31
2018-12-31T04:32:48.295Z,102504.11
2018-12-31T04:35:55.522Z,102513.47
2018-12-31T04:39:04.707Z,102510.95
2018-12-31T04:42:21.082Z,102505.84
2018-12-31T04:45:37.881Z,102496.95
2018-12-31T04:48:45.145Z,102507.14
2018-12-31T04:51:52.709Z,102507.98
2018-12-31T04:55:09.141Z,102513.95
2018-12-31T04:58:25.859Z,102521.19
2018-12-31T05:01:33.093Z,102527.95
2018-12-31T05:04:40.238Z,102519.44
2018-12-31T05:07:57.064Z,102521.59
2018-12-31T05:11:04.598Z,102531.77
2018-12-31T05:14:21.065Z,102529.21
2018-12-31T05:17:28.629Z,102533.51
2018-12-31T05:20:45.422Z,102541.17
2018-12-31T05:24:01.812Z,102537.35
2018-12-31T05:27:09.072Z,102532.19
2018-12-31T05:30:16.388Z,102537.72
2018-12-31T05:33:33.002Z,102528.39
2018-12-31T05:36:40.259Z,102530.10
2018-12-31T05:39:47.467Z,102531.39
2018-12-31T05:42:54.781Z,102539.88
2018-12-31T05:46:17.695Z,102537.75
2018-12-31T05:49:34.280Z,102537.77
2018-12-31T05:52:51.070Z,102527.56
2018-12-31T05:56:07.792Z,102520.30
2018-12-31T05:59:15.045Z,102530.95
2018-12-31T06:02:31.835Z,102531.37
2018-12-31T06:05:48.562Z,102530.06
2018-12-31T06:08:55.775Z,102546.64
2018-12-31T06:12:03.102Z,102547.50
2018-12-31T06:15:19.828Z,102536.44
2018-12-31T06:18:26.993Z,102537.31
2018-12-31T06:21:34.219Z,102530.91
2018-12-31T06:24:41.365Z,102531.34
2018-12-31T06:27:48.681Z,102530.90
2018-12-31T06:30:55.903Z,102538.55
2018-12-31T06:34:12.542Z,102540.71
2018-12-31T06:37:19.792Z,102543.66
2018-12-31T06:40:28.585Z,102539.41
2018-12-31T06:43:45.630Z,102553.48
2018-12-31T06:47:02.164Z,102552.63
2018-12-31T06:50:09.459Z,102557.27
2018-12-31T06:53:26.119Z,102556.03
2018-12-31T06:56:42.893Z,102563.68
2018-12-31T06:59:50.385Z,102564.06
2018-12-31T07:03:06.984Z,102562.84
2018-12-31T07:06:14.302Z,102564.06
2018-12-31T07:09:31.496Z,102569.16
2018-12-31T07:12:48.004Z,102570.50
2018-12-31T07:15:55.258Z,102575.16
2018-12-31T07:19:11.978Z,102577.26
2018-12-31T07:22:18.359Z,102584.52
2018-12-31T07:25:25.624Z,102587.91
2018-12-31T07:28:32.777Z,102595.99
2018-12-31T07:31:40.065Z,102592.16
2018-12-31T07:34:47.463Z,102589.63
2018-12-31T07:37:54.787Z,102593.01
2018-12-31T07:41:02.149Z,102596.00
2018-12-31T07:44:09.369Z,102593.88
2018-12-31T07:47:16.580Z,102596.45
2018-12-31T07:50:23.034Z,102591.75
2018-12-31T07:53:30.285Z,102597.28
2018-12-31T07:56:37.535Z,102587.00
2018-12-31T07:59:44.684Z,102583.69
2018-12-31T08:02:51.913Z,102591.73
2018-12-31T08:05:59.129Z,102594.71
2018-12-31T08:09:07.255Z,102593.02
2018-12-31T08:12:14.408Z,102601.98
2018-12-31T08:15:21.903Z,102605.37
2018-12-31T08:18:38.374Z,102601.95
2018-12-31T08:21:45.707Z,102596.88
2018-12-31T08:25:02.437Z,102593.45
2018-12-31T08:28:19.233Z,102592.20
2018-12-31T08:31:35.991Z,102600.67
2018-12-31T08:34:43.236Z,102603.26
2018-12-31T08:37:50.467Z,102603.23
2018-12-31T08:40:57.916Z,102606.63
2018-12-31T08:44:16.848Z,102602.38
2018-12-31T08:47:24.092Z,102613.88
2018-12-31T08:50:31.227Z,102616.84
2018-12-31T08:53:38.834Z,102608.30
2018-12-31T08:56:45.583Z,102610.46
2018-12-31T08:59:51.127Z,102592.12
2018-12-31T09:02:58.261Z,102591.27
2018-12-31T09:06:10.328Z,102596.81
2018-12-31T09:09:16.660Z,102598.50
2018-12-31T09:12:23.816Z,102601.09
2018-12-31T09:15:31.148Z,102609.59
2018-12-31T09:18:38.541Z,102602.31
2018-12-31T09:21:45.874Z,102590.41
2018-12-31T09:24:53.422Z,102598.02
2018-12-31T09:28:00.645Z,102591.27
2018-12-31T09:31:07.961Z,102591.68
2018-12-31T09:34:15.283Z,102583.95
2018-12-31T09:37:20.829Z,102591.66
2018-12-31T09:40:28.447Z,102594.56
2018-12-31T09:43:44.832Z,102584.02
2018-12-31T09:47:07.644Z,102572.05
2018-12-31T09:50:24.505Z,102586.94
2018-12-31T09:53:31.669Z,102595.81
2018-12-31T09:56:51.058Z,102586.84
2018-12-31T10:00:08.258Z,102580.48
2018-12-31T10:03:15.497Z,102582.66
2018-12-31T10:06:22.631Z,102575.87
2018-12-31T10:09:29.949Z,102578.42
2018-12-31T10:12:37.368Z,102575.87
2018-12-31T10:15:44.175Z,102573.30
2018-12-31T10:18:51.516Z,102571.98
2018-12-31T10:21:59.051Z,102572.89
2018-12-31T10:25:06.408Z,102571.61
2018-12-31T10:28:13.743Z,102566.42
2018-12-31T10:31:20.995Z,102558.75
2018-12-31T10:34:29.765Z,102558.77
2018-12-31T10:37:37.067Z,102561.30
2018-12-31T10:40:44.418Z,102547.61
2018-12-31T10:43:51.665Z,102544.16
2018-12-31T10:57:15.048Z,102538.56
2018-12-31T11:00:50.143Z,102550.83
2018-12-31T11:04:12.807Z,102550.81
2018-12-31T11:07:19.952Z,102546.66
2018-12-31T11:10:27.278Z,102548.41
2018-12-31T11:13:47.610Z,102547.02
2018-12-31T11:17:21.932Z,102547.36
2018-12-31T11:20:38.756Z,102544.13
2018-12-31T11:24:05.669Z,102540.66
2018-12-31T11:27:12.928Z,102547.93
2018-12-31T11:30:20.065Z,102540.26
2018-12-31T11:33:27.392Z,102527.05
2018-12-31T11:36:33.479Z,102519.01
2018-12-31T11:39:50.303Z,102508.98
2018-12-31T11:43:06.874Z,102499.73
2018-12-31T11:46:23.691Z,102492.31
2018-12-31T11:49:40.372Z,102495.91
2018-12-31T11:52:47.781Z,102497.20
2018-12-31T11:56:10.127Z,102483.09
2018-12-31T12:38:56.571Z,102492.00
2018-12-31T12:42:03.874Z,102480.38
2018-12-31T12:45:22.653Z,102472.60
2018-12-31T12:48:39.254Z,102477.44
2018-12-31T12:51:56.405Z,102471.78
2018-12-31T12:55:12.913Z,102474.95
2018-12-31T12:58:29.643Z,102475.38
2018-12-31T13:01:36.874Z,102480.41
2018-12-31T13:04:44.434Z,102470.36
2018-12-31T13:08:00.893Z,102465.48
2018-12-31T13:11:17.767Z,102471.03
2018-12-31T13:14:40.829Z,102472.47
2018-12-31T13:17:57.370Z,102469.39
2018-12-31T13:21:14.005Z,102467.59
2018-12-31T13:24:21.353Z,102471.09
2018-12-31T13:27:38.009Z,102463.34
2018-12-31T13:30:54.845Z,102464.71
2018-12-31T13:34:11.569Z,102461.20
2018-12-31T13:37:18.807Z,102464.30
2018-12-31T13:40:26.032Z,102462.16
2018-12-31T13:43:33.203Z,102462.10
2018-12-31T13:46:49.941Z,102464.10
2018-12-31T13:49:57.075Z,102464.68
2018-12-31T13:53:04.260Z,102455.25
2018-12-31T13:56:11.479Z,102452.70
2018-12-31T13:59:18.779Z,102454.80
2018-12-31T14:02:35.543Z,102448.11
2018-12-31T14:05:42.775Z,102453.97
2018-12-31T14:08:50.012Z,102455.69
2018-12-31T14:12:08.514Z,102447.13
2018-12-31T14:15:24.845Z,102450.10
2018-12-31T14:18:30.475Z,102451.04
2018-12-31T14:21:38.027Z,102438.18
2018-12-31T14:24:54.450Z,102445.44
2018-12-31T14:28:01.674Z,102451.40
2018-12-31T14:31:09.067Z,102443.84
2018-12-31T14:34:25.890Z,102447.51
2018-12-31T14:37:42.621Z,102444.53
2018-12-31T14:40:49.851Z,102450.93
2018-12-31T14:44:06.717Z,102456.83
2018-12-31T14:47:23.567Z,102453.95
2018-12-31T14:50:40.385Z,102461.13
2018-12-31T14:53:57.080Z,102461.88
2018-12-31T14:57:04.386Z,102465.39
2018-12-31T15:00:21.062Z,102463.64
2018-12-31T15:03:37.903Z,102458.57
2018-12-31T15:06:54.636Z,102455.50
2018-12-31T15:10:01.930Z,102454.31
2018-12-31T15:13:18.608Z,102452.86
2018-12-31T15:16:25.815Z,102446.19
2018-12-31T15:19:33.042Z,102448.73
2018-12-31T15:22:40.277Z,102447.86
2018-12-31T15:25:47.411Z,102440.20
2018-12-31T15:28:54.641Z,102432.03
2018-12-31T15:32:11.471Z,102434.14
2018-12-31T15:35:28.861Z,102426.03
2018-12-31T15:38:36.267Z,102428.61
2018-12-31T15:41:43.764Z,102428.61
2018-12-31T15:44:51.273Z,102431.53
2018-12-31T15:47:58.695Z,102428.61
2018-12-31T15:51:15.917Z,102424.67
2018-12-31T15:54:32.128Z,102421.56
2018-12-31T15:57:39.477Z,102416.31
2018-12-31T16:00:46.606Z,102407.30
2018-12-31T16:04:03.393Z,102411.48
2018-12-31T16:07:09.528Z,102405.06
2018-12-31T16:10:16.679Z,102403.00
2018-12-31T16:13:24.583Z,102395.69
2018-12-31T16:16:31.858Z,102391.83
2018-12-31T16:19:39.142Z,102389.75
2018-12-31T16:22:47.185Z,102393.56
2018-12-31T16:25:54.501Z,102397.34
2018-12-31T16:29:01.816Z,102405.81
2018-12-31T16:32:09.061Z,102408.55
2018-12-31T16:35:16.292Z,102408.30
2018-12-31T16:38:23.553Z,102395.25
2018-12-31T16:41:30.689Z,102400.76
2018-12-31T16:44:38.129Z,102403.73
2018-12-31T16:47:45.351Z,102401.63
2018-12-31T16:50:52.679Z,102394.66
2018-12-31T16:53:59.812Z,102394.77
2018-12-31T16:57:06.951Z,102386.28
2018-12-31T17:00:14.331Z,102387.22
2018-12-31T17:03:21.567Z,102382.42
2018-12-31T17:06:38.526Z,102371.38
2018-12-31T17:09:45.833Z,102379.39
2018-12-31T17:13:02.511Z,102376.42
2018-12-31T17:16:19.201Z,102367.97
2018-12-31T17:19:26.335Z,102373.42
2018-12-31T17:22:33.558Z,102386.16
2018-12-31T17:25:40.784Z,102383.33
2018-12-31T17:28:48.011Z,102372.17
2018-12-31T17:31:55.256Z,102370.05
2018-12-31T17:35:02.468Z,102368.23
2018-12-31T17:38:19.166Z,102359.41
2018-12-31T17:41:26.413Z,102378.16
2018-12-31T17:44:34.643Z,102373.04
2018-12-31T17:47:41.789Z,102367.89
2018-12-31T17:50:49.008Z,102380.26
2018-12-31T17:53:55.493Z,102365.05
2018-12-31T17:57:11.953Z,102358.22
2018-12-31T18:00:19.140Z,102357.22
2018-12-31T18:03:35.913Z,102343.59
2018-12-31T18:06:43.049Z,102357.37
2018-12-31T18:09:59.894Z,102352.67
2018-12-31T18:13:07.145Z,102343.47
2018-12-31T18:16:14.275Z,102344.73
2018-12-31T18:19:21.483Z,102346.52
2018-12-31T18:22:28.620Z,102355.48
2018-12-31T18:25:45.445Z,102358.41
2018-12-31T18:28:52.679Z,102361.02
2018-12-31T18:31:59.982Z,102349.03
2018-12-31T18:35:16.712Z,102349.21
2018-12-31T18:38:33.377Z,102351.61
2018-12-31T18:41:50.225Z,102344.52
2018-12-31T18:44:56.702Z,102348.32
2018-12-31T18:48:04.036Z,102342.27
2018-12-31T18:51:11.355Z,102335.06
2018-12-31T18:54:18.588Z,102340.69
2018-12-31T18:57:25.722Z,102335.06
2018-12-31T19:00:32.847Z,102340.25
2018-12-31T19:03:39.980Z,102344.94
2018-12-31T19:06:47.225Z,102340.08
2018-12-31T19:09:54.492Z,102345.31
2018-12-31T19:13:01.733Z,102343.42
2018-12-31T19:16:10.862Z,102349.02
2018-12-31T19:19:18.098Z,102348.39
2018-12-31T19:22:25.397Z,102358.34
2018-12-31T19:25:32.544Z,102350.24
2018-12-31T19:31:15.907Z,102340.06
2018-12-31T19:34:23.152Z,102339.55
2018-12-31T19:37:30.392Z,102325.11
2018-12-31T19:40:36.558Z,102321.69
2018-12-31T19:43:44.112Z,102319.89
2018-12-31T19:46:51.430Z,102307.12
2018-12-31T19:49:58.672Z,102299.39
2018-12-31T19:53:06.118Z,102290.41
2018-12-31T19:56:23.363Z,102282.24
2018-12-31T19:59:40.387Z,102284.32
2018-12-31T20:02:56.902Z,102265.97
2018-12-31T20:06:04.207Z,102267.34
2018-12-31T20:09:20.897Z,102258.28
2018-12-31T20:12:26.523Z,102253.31
2018-12-31T20:15:48.591Z,102255.40
2018-12-31T20:19:01.685Z,102248.16
2018-12-31T20:22:08.931Z,102253.84
2018-12-31T20:25:16.159Z,102259.00
2018-12-31T20:28:32.957Z,102246.22
2018-12-31T20:31:40.093Z,102247.93
2018-12-31T20:34:56.858Z,102242.64
2018-12-31T20:38:04.400Z,102252.88
2018-12-31T20:41:21.128Z,102241.34
2018-12-31T20:44:37.734Z,102240.55
2018-12-31T20:48:01.636Z,102252.45
2018-12-31T20:51:03.960Z,102243.20
2018-12-31T20:54:11.412Z,102250.91
2018-12-31T20:57:18.639Z,102249.52
2018-12-31T21:00:26.039Z,102245.39
2018-12-31T21:03:33.174Z,102234.66
2018-12-31T21:06:40.409Z,102234.24
2018-12-31T21:09:47.947Z,102219.89
2018-12-31T21:12:55.077Z,102217.77
2018-12-31T21:16:02.451Z,102221.61
2018-12-31T21:19:09.675Z,102221.00
2018-12-31T21:22:16.923Z,102198.86
2018-12-31T21:25:24.205Z,102200.59
2018-12-31T21:28:40.883Z,102174.81
2018-12-31T21:31:48.119Z,102175.75
2018-12-31T21:35:05.349Z,102160.75
2018-12-31T21:38:21.747Z,102155.13
2018-12-31T21:41:38.521Z,102153.48
2018-12-31T21:44:57.805Z,102135.58
2018-12-31T21:48:05.008Z,102119.45
2018-12-31T21:51:21.998Z,102115.77
2018-12-31T21:54:29.232Z,102114.08
2018-12-31T21:57:45.938Z,102124.36
2018-12-31T22:00:53.292Z,102124.02
2018-12-31T22:04:09.964Z,102119.12
2018-12-31T22:07:17.423Z,102119.70
2018-12-31T22:10:36.468Z,102113.95
2018-12-31T22:13:43.979Z,102111.83
2018-12-31T22:17:00.526Z,102106.79
2018-12-31T22:20:20.091Z,102103.38
2018-12-31T22:23:36.620Z,102097.58
2018-12-31T22:26:53.347Z,102102.16
2018-12-31T22:30:00.665Z,102089.16
2018-12-31T22:33:07.873Z,102090.06
2018-12-31T22:36:24.590Z,102092.90
2018-12-31T22:39:41.333Z,102078.59
2018-12-31T22:42:48.513Z,102069.39
2018-12-31T22:45:55.668Z,102058.60
2018-12-31T22:49:03.578Z,102046.74
2018-12-31T22:52:10.889Z,102043.42
2018-12-31T22:55:18.047Z,102042.77
2018-12-31T22:58:25.331Z,102026.70
2018-12-31T23:01:32.653Z,102035.67
2018-12-31T23:04:40.201Z,102031.81
2018-12-31T23:07:47.712Z,102020.17
2018-12-31T23:10:54.915Z,102009.94
2018-12-31T23:14:02.087Z,102010.67
2018-12-31T23:17:11.627Z,101997.72
2018-12-31T23:21:07.693Z,102003.11
2018-12-31T23:24:14.946Z,101998.95
2018-12-31T23:27:32.526Z,101992.01
2018-12-31T23:30:38.338Z,101980.53
2018-12-31T23:33:45.683Z,101979.80
2018-12-31T23:36:53.053Z,101984.97
2018-12-31T23:40:00.259Z,101966.31
2018-12-31T23:43:07.588Z,101968.44
2018-12-31T23:46:15.158Z,101954.86
2018-12-31T23:49:22.394Z,101957.85
2018-12-31T23:52:29.616Z,101946.30
2018-12-31T23:55:36.857Z,101958.72
2018-12-31T23:58:54.246Z,101954.40
